Time;durP1;ratioP1;P1;durP2;ratioP2;P2;SDS_P1;SDS_P2;PMS_P1;PMS_P2;Temp;Humidity;BMP_temperature;BMP_pressure;BME280_temperature;BME280_humidity;BME280_pressure;Samples;Min_cycle;Max_cycle;Signal;HPM_P1;HPM_P2
2022/05/14 00:02:08;;;;;;;1.93;1.83;;;22.00;58.10;;;;;;5053887;28;20472;-57
2022/05/14 00:04:35;;;;;;;1.77;1.67;;;22.00;58.10;;;;;;5054342;28;20810;-56
2022/05/14 00:07:02;;;;;;;3.93;2.30;;;22.00;58.20;;;;;;5054202;28;20455;-55
2022/05/14 00:09:28;;;;;;;4.03;1.97;;;22.00;58.30;;;;;;5054040;28;20451;-53
2022/05/14 00:14:41;;;;;;;3.70;2.80;;;22.00;58.40;;;;;;5054674;28;20459;-58
2022/05/14 00:17:07;;;;;;;3.40;2.27;;;22.00;58.50;;;;;;5053853;28;20832;-54
2022/05/14 00:19:34;;;;;;;2.23;2.13;;;22.00;58.50;;;;;;5053388;28;20444;-56
2022/05/14 00:22:01;;;;;;;3.53;2.57;;;22.00;58.50;;;;;;5054097;28;20494;-57
2022/05/14 00:24:28;;;;;;;3.83;2.87;;;22.00;58.60;;;;;;5053619;28;20543;-53
2022/05/14 00:26:55;;;;;;;2.93;2.70;;;22.00;58.50;;;;;;5052509;28;20847;-54
2022/05/14 00:29:21;;;;;;;1.87;1.77;;;22.00;58.50;;;;;;5053793;28;20448;-55
2022/05/14 00:31:50;;;;;;;2.27;2.17;;;21.90;58.50;;;;;;5053492;28;20452;-57
2022/05/14 00:34:16;;;;;;;2.40;2.20;;;21.90;58.60;;;;;;5053758;28;20808;-53
2022/05/14 00:36:43;;;;;;;2.57;2.37;;;21.90;58.60;;;;;;5053575;28;20482;-52
2022/05/14 00:39:10;;;;;;;2.83;2.03;;;21.90;58.80;;;;;;5053608;28;20502;-52
2022/05/14 00:41:39;;;;;;;2.20;2.03;;;21.90;58.80;;;;;;5053234;28;20444;-55
2022/05/14 00:44:06;;;;;;;2.30;2.10;;;21.90;58.80;;;;;;5053543;28;20456;-54
2022/05/14 00:46:40;;;;;;;1.70;1.60;;;21.90;58.90;;;;;;5053301;28;20452;-56
2022/05/14 00:49:08;;;;;;;2.00;1.90;;;21.90;58.90;;;;;;5053493;28;20544;-58
2022/05/14 00:51:36;;;;;;;2.00;1.87;;;21.90;58.90;;;;;;5053303;28;20441;-57
2022/05/14 00:54:07;;;;;;;2.73;2.13;;;21.90;58.90;;;;;;5053397;28;20944;-54
2022/05/14 00:56:37;;;;;;;2.83;1.97;;;21.80;59.00;;;;;;5053220;28;20925;-55
2022/05/14 00:59:08;;;;;;;2.73;1.80;;;21.80;59.00;;;;;;5053672;28;20462;-55
2022/05/14 01:01:36;;;;;;;1.87;1.77;;;21.80;59.10;;;;;;5053002;28;20805;-57
2022/05/14 01:04:03;;;;;;;2.10;2.00;;;21.80;59.10;;;;;;5053084;28;20897;-52
2022/05/14 01:06:33;;;;;;;2.63;2.40;;;21.80;59.10;;;;;;5053231;28;20459;-57
2022/05/14 01:09:00;;;;;;;2.70;2.50;;;21.80;59.10;;;;;;5053251;28;20448;-57
2022/05/14 01:11:28;;;;;;;3.07;2.77;;;21.80;59.10;;;;;;5052589;28;20445;-56
2022/05/14 01:13:56;;;;;;;4.40;1.77;;;21.80;59.00;;;;;;5052775;28;20479;-58
2022/05/14 01:16:23;;;;;;;1.87;1.77;;;21.80;58.90;;;;;;5053175;28;20448;-54
2022/05/14 01:18:50;;;;;;;1.80;1.70;;;21.80;59.00;;;;;;5052659;28;20472;-54
2022/05/14 01:21:25;;;;;;;2.10;2.00;;;21.70;58.90;;;;;;5052401;28;20447;-57
2022/05/14 01:26:49;;;;;;;1.90;1.80;;;21.70;58.90;;;;;;5034681;28;20903;-57
2022/05/14 01:29:19;;;;;;;2.23;2.00;;;21.60;58.80;;;;;;5051558;28;20443;-51
2022/05/14 01:31:47;;;;;;;3.20;2.03;;;21.60;58.90;;;;;;5052275;28;20445;-56
2022/05/14 01:34:18;;;;;;;2.20;2.00;;;21.60;58.70;;;;;;5052266;28;20497;-57
2022/05/14 01:36:45;;;;;;;1.67;1.57;;;21.60;58.60;;;;;;5052458;28;20515;-53
2022/05/14 01:39:12;;;;;;;2.27;1.90;;;21.60;58.60;;;;;;5052348;28;20965;-56
2022/05/14 01:41:39;;;;;;;2.33;2.23;;;21.60;58.50;;;;;;5052266;28;20469;-56
2022/05/14 01:44:08;;;;;;;2.60;1.90;;;21.60;58.30;;;;;;5052405;28;20455;-58
2022/05/14 01:46:35;;;;;;;2.30;2.20;;;21.60;58.40;;;;;;5052327;28;20445;-53
2022/05/14 01:49:03;;;;;;;2.50;2.40;;;21.50;58.20;;;;;;5052390;28;20454;-58
2022/05/14 01:51:30;;;;;;;2.07;1.90;;;21.60;58.30;;;;;;5052241;28;20455;-58
2022/05/14 01:53:57;;;;;;;1.90;1.80;;;21.50;58.20;;;;;;5051979;28;20444;-58
2022/05/14 01:56:24;;;;;;;1.53;1.43;;;21.50;58.20;;;;;;5052110;28;20444;-56
2022/05/14 01:58:51;;;;;;;2.10;2.00;;;21.50;58.20;;;;;;5036211;28;20989;-53
2022/05/14 02:01:22;;;;;;;3.43;2.97;;;21.60;58.30;;;;;;5051801;28;20448;-55
2022/05/14 02:03:50;;;;;;;1.83;1.73;;;21.60;58.20;;;;;;5051969;28;20461;-52
2022/05/14 02:06:18;;;;;;;1.70;1.60;;;21.50;58.00;;;;;;5051972;28;20459;-56
2022/05/14 02:08:44;;;;;;;2.67;2.53;;;21.50;57.90;;;;;;5051782;28;20958;-52
2022/05/14 02:11:13;;;;;;;1.60;1.50;;;21.30;57.70;;;;;;5051877;28;20457;-58
2022/05/14 02:13:41;;;;;;;1.90;1.80;;;21.30;57.90;;;;;;5051613;28;20819;-58
2022/05/14 02:16:08;;;;;;;3.47;2.67;;;21.30;57.80;;;;;;5051624;28;20822;-55
2022/05/14 02:18:37;;;;;;;2.20;2.10;;;21.30;57.60;;;;;;5051782;28;20967;-54
2022/05/14 02:21:05;;;;;;;3.27;1.53;;;21.30;57.60;;;;;;5051736;28;20478;-58
2022/05/14 02:23:32;;;;;;;2.03;1.43;;;21.30;57.50;;;;;;5050918;28;20966;-54
2022/05/14 02:25:59;;;;;;;1.73;1.63;;;21.30;57.50;;;;;;5051814;28;20467;-58
2022/05/14 02:28:26;;;;;;;1.97;1.87;;;21.30;57.50;;;;;;5051747;28;20456;-57
2022/05/14 02:30:53;;;;;;;1.40;1.37;;;21.20;57.30;;;;;;5051500;28;20864;-58
2022/05/14 02:33:19;;;;;;;2.30;2.10;;;21.30;57.50;;;;;;5051110;28;20464;-54
2022/05/14 02:35:47;;;;;;;2.63;2.43;;;21.30;57.30;;;;;;5051600;28;20448;-58
2022/05/14 02:38:15;;;;;;;3.30;2.10;;;21.30;57.20;;;;;;5051272;28;20480;-58
2022/05/14 02:40:43;;;;;;;1.97;1.80;;;21.30;57.10;;;;;;5051274;28;20992;-53
2022/05/14 02:43:10;;;;;;;1.60;1.40;;;21.30;57.20;;;;;;5051324;28;20866;-58
2022/05/14 02:45:37;;;;;;;2.70;1.73;;;21.30;57.10;;;;;;5051438;28;20503;-57
2022/05/14 02:48:04;;;;;;;2.27;1.80;;;21.30;57.20;;;;;;5051134;28;20453;-54
2022/05/14 02:50:31;;;;;;;1.70;1.60;;;21.30;57.20;;;;;;5051647;28;20502;-58
2022/05/14 02:52:59;;;;;;;2.30;2.03;;;21.20;57.10;;;;;;5051084;28;20464;-55
2022/05/14 02:55:26;;;;;;;3.33;2.10;;;21.10;57.00;;;;;;5050216;28;20510;-54
2022/05/14 02:57:53;;;;;;;1.50;1.40;;;21.10;57.00;;;;;;5051116;28;20479;-57
2022/05/14 03:00:21;;;;;;;3.63;2.10;;;21.20;57.10;;;;;;5050931;28;20461;-57
2022/05/14 03:02:48;;;;;;;3.30;2.57;;;21.10;56.90;;;;;;5051254;28;20475;-57
2022/05/14 03:05:17;;;;;;;1.60;1.50;;;21.10;56.70;;;;;;5051219;28;20449;-58
2022/05/14 03:07:44;;;;;;;1.60;1.50;;;21.00;56.70;;;;;;5031408;28;20484;-57
2022/05/14 03:10:12;;;;;;;1.77;1.67;;;21.10;56.70;;;;;;5049614;28;20454;-57
2022/05/14 03:12:40;;;;;;;2.23;1.93;;;21.10;56.50;;;;;;5050640;28;20476;-55
2022/05/14 03:15:08;;;;;;;2.93;1.80;;;21.20;56.70;;;;;;5051055;28;20444;-56
2022/05/14 03:17:35;;;;;;;1.70;1.60;;;21.20;56.80;;;;;;5051123;28;20483;-55
2022/05/14 03:20:02;;;;;;;2.13;1.30;;;21.20;56.60;;;;;;5051183;28;20444;-58
2022/05/14 03:22:29;;;;;;;1.63;1.53;;;21.20;56.70;;;;;;5051064;28;20518;-52
2022/05/14 03:24:56;;;;;;;1.87;1.67;;;21.20;56.70;;;;;;5051034;28;20946;-55
2022/05/14 03:27:24;;;;;;;2.17;1.87;;;21.20;56.60;;;;;;5050721;28;20460;-57
2022/05/14 03:29:51;;;;;;;2.23;1.80;;;21.20;56.60;;;;;;5050979;28;20451;-57
2022/05/14 03:32:18;;;;;;;1.67;1.57;;;21.20;56.70;;;;;;5050774;28;21060;-56
2022/05/14 03:34:45;;;;;;;2.10;1.50;;;21.20;56.80;;;;;;5050850;28;20472;-52
2022/05/14 03:37:13;;;;;;;1.90;1.80;;;21.20;56.90;;;;;;5050984;28;20448;-57
2022/05/14 03:39:39;;;;;;;1.40;1.40;;;21.20;57.00;;;;;;5050983;28;20476;-55
2022/05/14 03:42:07;;;;;;;1.97;1.87;;;21.20;56.90;;;;;;5050613;28;20471;-54
2022/05/14 03:44:35;;;;;;;1.93;1.83;;;21.10;56.90;;;;;;5050912;28;20510;-57
2022/05/14 03:47:01;;;;;;;1.90;1.80;;;21.10;56.80;;;;;;5051038;28;20444;-57
2022/05/14 03:49:28;;;;;;;1.73;1.60;;;21.10;56.60;;;;;;5050976;28;20440;-56
2022/05/14 03:51:55;;;;;;;2.50;2.00;;;21.10;56.70;;;;;;5050720;28;20949;-53
2022/05/14 03:54:22;;;;;;;1.83;1.70;;;21.00;56.60;;;;;;5053572;28;20444;-57
2022/05/14 03:56:48;;;;;;;2.30;2.13;;;21.00;56.50;;;;;;5059925;28;20452;-59
2022/05/14 03:59:15;;;;;;;2.07;1.90;;;21.20;57.20;;;;;;5060680;28;20484;-58
2022/05/14 04:01:43;;;;;;;1.50;1.40;;;21.30;56.90;;;;;;5055104;28;20448;-56
2022/05/14 04:04:10;;;;;;;3.67;1.80;;;21.30;57.00;;;;;;5056083;28;21012;-55
2022/05/14 04:06:37;;;;;;;2.30;1.40;;;21.40;56.90;;;;;;5054290;28;20455;-56
2022/05/14 04:09:04;;;;;;;1.77;1.67;;;21.30;56.90;;;;;;5054952;28;20440;-57
2022/05/14 04:11:31;;;;;;;1.53;1.43;;;21.40;57.10;;;;;;5055218;28;20440;-56
2022/05/14 04:13:58;;;;;;;1.27;1.27;;;21.50;57.20;;;;;;5054218;28;20448;-54
2022/05/14 04:16:25;;;;;;;3.80;1.37;;;21.40;56.80;;;;;;5054050;28;20777;-53
2022/05/14 04:18:53;;;;;;;1.50;1.40;;;21.30;56.70;;;;;;5053978;28;20483;-56
2022/05/14 04:21:20;;;;;;;4.50;2.43;;;21.30;56.60;;;;;;5054214;28;20535;-55
2022/05/14 04:23:47;;;;;;;8.63;2.90;;;21.30;57.00;;;;;;5053812;28;20472;-51
2022/05/14 04:26:14;;;;;;;7.63;2.50;;;21.30;58.10;;;;;;5053760;28;20475;-55
2022/05/14 04:28:40;;;;;;;4.10;2.13;;;21.20;59.50;;;;;;5053886;28;20443;-54
2022/05/14 04:31:07;;;;;;;3.07;2.40;;;21.10;61.10;;;;;;5054153;28;20524;-59
2022/05/14 04:33:34;;;;;;;4.30;2.43;;;21.00;62.40;;;;;;5053784;28;20464;-52
2022/05/14 04:36:02;;;;;;;3.30;3.00;;;20.90;62.10;;;;;;5053611;28;20440;-52
2022/05/14 04:38:29;;;;;;;6.63;2.60;;;20.90;61.60;;;;;;5053743;28;20483;-51
2022/05/14 04:40:56;;;;;;;2.80;2.00;;;21.00;61.30;;;;;;5053838;28;20444;-55
2022/05/14 04:43:23;;;;;;;5.93;2.13;;;21.10;60.30;;;;;;5053244;28;20468;-53
2022/05/14 04:45:50;;;;;;;2.00;1.90;;;21.20;60.30;;;;;;5052028;28;20451;-53
2022/05/14 04:48:17;;;;;;;2.17;1.63;;;21.20;59.20;;;;;;5054109;28;20437;-53
2022/05/14 04:50:44;;;;;;;2.43;1.73;;;21.20;58.90;;;;;;5053714;28;20456;-52
2022/05/14 04:53:12;;;;;;;2.13;1.63;;;21.20;58.60;;;;;;5053683;28;20808;-52
2022/05/14 04:55:40;;;;;;;3.43;2.57;;;21.20;58.30;;;;;;5053688;28;20449;-56
2022/05/14 04:58:07;;;;;;;4.43;2.00;;;21.30;58.20;;;;;;5053307;28;20479;-53
2022/05/14 05:00:35;;;;;;;1.67;1.57;;;21.30;58.20;;;;;;5054076;28;20794;-56
2022/05/14 05:03:19;;;;;;;1.40;1.33;;;21.30;57.80;;;;;;5053378;28;20460;-51
2022/05/14 05:05:48;;;;;;;2.33;2.13;;;21.30;57.60;;;;;;5053111;28;20436;-52
2022/05/14 05:08:16;;;;;;;1.77;1.50;;;21.20;57.30;;;;;;5053386;28;20502;-54
2022/05/14 05:10:43;;;;;;;2.20;1.80;;;21.20;57.10;;;;;;5053322;28;20476;-54
2022/05/14 05:13:11;;;;;;;1.53;1.30;;;21.20;57.10;;;;;;5053073;28;20480;-51
2022/05/14 05:15:39;;;;;;;1.33;1.23;;;21.30;57.00;;;;;;5053223;28;20806;-51
2022/05/14 05:18:06;;;;;;;2.27;1.93;;;21.20;56.80;;;;;;5052789;28;20444;-51
2022/05/14 05:20:34;;;;;;;3.83;1.47;;;21.30;56.70;;;;;;5053240;28;20452;-54
2022/05/14 05:23:00;;;;;;;3.30;2.10;;;21.20;56.50;;;;;;5053052;28;20456;-51
2022/05/14 05:25:29;;;;;;;1.60;1.50;;;21.20;56.50;;;;;;5052957;28;20833;-51
2022/05/14 05:27:56;;;;;;;2.03;1.90;;;21.20;56.40;;;;;;5052796;28;20809;-51
2022/05/14 05:30:23;;;;;;;1.90;1.60;;;21.20;56.30;;;;;;5052925;28;20459;-53
2022/05/14 05:32:51;;;;;;;1.40;1.30;;;21.20;56.10;;;;;;5052695;28;20487;-53
2022/05/14 05:35:19;;;;;;;1.30;1.20;;;21.20;56.00;;;;;;5052866;28;20451;-54
2022/05/14 05:37:47;;;;;;;1.37;1.17;;;21.20;55.90;;;;;;5052592;28;20451;-51
2022/05/14 05:40:14;;;;;;;2.27;1.70;;;21.20;55.90;;;;;;5052598;28;20476;-54
2022/05/14 05:42:42;;;;;;;2.20;1.37;;;21.20;55.80;;;;;;5052687;28;20468;-52
2022/05/14 05:45:12;;;;;;;1.63;1.50;;;21.10;55.60;;;;;;5052660;28;20444;-51
2022/05/14 05:47:38;;;;;;;2.00;1.40;;;21.20;55.70;;;;;;5052299;28;20808;-51
2022/05/14 05:50:07;;;;;;;1.20;1.20;;;21.20;55.60;;;;;;5052498;28;20444;-51
2022/05/14 05:52:33;;;;;;;1.80;1.10;;;21.20;55.60;;;;;;5052465;28;20464;-55
2022/05/14 05:57:46;;;;;;;1.47;1.23;;;21.20;55.50;;;;;;5052605;28;20427;-52
2022/05/14 06:00:16;;;;;;;2.97;1.40;;;21.20;55.40;;;;;;5052200;28;20480;-52
2022/05/14 06:02:44;;;;;;;1.10;1.00;;;21.10;55.20;;;;;;5052309;28;20891;-51
2022/05/14 06:05:11;;;;;;;2.23;1.43;;;21.10;55.20;;;;;;5052341;28;20452;-51
2022/05/14 06:07:39;;;;;;;2.30;1.30;;;21.10;55.20;;;;;;5052226;28;20436;-54
2022/05/14 06:10:08;;;;;;;1.83;1.33;;;21.10;55.20;;;;;;5052044;28;20444;-51
2022/05/14 06:12:41;;;;;;;1.50;1.40;;;21.10;55.20;;;;;;5052110;28;20989;-52
2022/05/14 06:15:13;;;;;;;1.90;1.40;;;21.10;55.20;;;;;;5051983;28;20444;-51
2022/05/14 06:17:40;;;;;;;1.30;1.20;;;21.20;55.20;;;;;;5051548;28;20444;-51
2022/05/14 06:20:10;;;;;;;1.00;1.00;;;21.20;55.20;;;;;;5051925;28;20480;-51
2022/05/14 06:22:37;;;;;;;1.57;1.57;;;21.20;55.20;;;;;;5051800;28;20467;-52
2022/05/14 06:25:06;;;;;;;1.20;1.10;;;21.10;55.10;;;;;;5051868;28;20485;-51
2022/05/14 06:27:32;;;;;;;0.90;0.90;;;21.20;55.70;;;;;;5051690;28;20471;-53
2022/05/14 06:29:59;;;;;;;0.97;0.97;;;21.10;55.10;;;;;;5051898;28;20447;-51
2022/05/14 06:32:28;;;;;;;1.87;1.50;;;21.10;55.10;;;;;;5051663;28;20461;-51
2022/05/14 06:34:54;;;;;;;1.80;1.70;;;21.10;55.10;;;;;;5051757;28;20973;-52
2022/05/14 06:37:21;;;;;;;1.63;1.27;;;21.00;55.10;;;;;;5051788;28;20440;-52
2022/05/14 06:39:48;;;;;;;1.47;1.40;;;21.10;55.20;;;;;;5051717;28;20839;-52
2022/05/14 06:42:14;;;;;;;2.37;1.47;;;21.00;55.10;;;;;;5051640;28;20464;-51
2022/05/14 06:44:42;;;;;;;2.20;1.40;;;21.00;55.10;;;;;;5051623;28;20448;-51
2022/05/14 06:47:08;;;;;;;1.20;1.20;;;21.00;55.00;;;;;;5051367;28;20452;-51
2022/05/14 06:49:36;;;;;;;1.83;1.10;;;21.10;55.10;;;;;;5051651;28;20452;-52
2022/05/14 06:52:04;;;;;;;1.20;0.90;;;21.10;55.10;;;;;;5051437;28;20478;-52
2022/05/14 06:54:35;;;;;;;2.93;1.13;;;21.00;55.00;;;;;;5051620;28;20451;-52
2022/05/14 06:57:04;;;;;;;2.27;1.30;;;21.10;55.10;;;;;;5051289;28;20456;-51
2022/05/14 06:59:32;;;;;;;0.70;0.70;;;21.10;55.10;;;;;;5051509;28;20482;-52
2022/05/14 07:01:59;;;;;;;1.13;1.10;;;21.00;55.00;;;;;;5051325;28;20466;-52
2022/05/14 07:07:12;;;;;;;1.67;1.40;;;21.10;55.10;;;;;;5051275;28;20420;-51
2022/05/14 07:09:39;;;;;;;1.23;1.13;;;21.10;55.10;;;;;;5051457;28;20535;-51
2022/05/14 07:12:09;;;;;;;1.93;1.47;;;21.10;55.20;;;;;;5051116;28;20475;-54
2022/05/14 07:14:39;;;;;;;2.07;1.30;;;21.10;55.20;;;;;;5051418;28;20452;-53
2022/05/14 07:17:08;;;;;;;2.50;2.30;;;21.00;55.20;;;;;;5051135;28;20449;-53
2022/05/14 07:19:36;;;;;;;1.37;1.30;;;21.10;55.30;;;;;;5051367;28;20487;-51
2022/05/14 07:22:04;;;;;;;1.37;1.27;;;21.10;55.20;;;;;;5051224;28;20461;-51
2022/05/14 07:24:32;;;;;;;1.73;1.60;;;21.10;55.20;;;;;;5051521;28;20440;-51
2022/05/14 07:27:02;;;;;;;1.33;0.80;;;21.00;55.40;;;;;;5051021;28;20952;-51
2022/05/14 07:29:30;;;;;;;1.17;1.10;;;21.00;55.40;;;;;;5054269;28;20448;-52
2022/05/14 07:31:57;;;;;;;1.13;0.93;;;21.10;55.50;;;;;;5055096;28;20464;-52
2022/05/14 07:34:24;;;;;;;1.30;1.20;;;21.10;55.40;;;;;;5055138;28;20448;-52
2022/05/14 07:36:55;;;;;;;1.70;1.60;;;21.20;55.50;;;;;;5054817;28;20444;-52
2022/05/14 07:39:26;;;;;;;1.20;1.10;;;21.10;55.40;;;;;;5054997;28;20490;-53
2022/05/14 07:41:57;;;;;;;1.63;1.53;;;21.10;55.50;;;;;;5054937;28;20491;-53
2022/05/14 07:44:30;;;;;;;1.50;1.40;;;21.10;55.60;;;;;;5054983;28;20447;-52
2022/05/14 07:46:57;;;;;;;1.20;1.20;;;21.10;55.70;;;;;;5054734;28;20447;-54
2022/05/14 07:49:25;;;;;;;1.33;1.13;;;21.10;55.70;;;;;;5054726;28;20444;-52
2022/05/14 07:51:53;;;;;;;1.33;1.23;;;21.20;55.80;;;;;;5054807;28;20463;-51
2022/05/14 07:54:20;;;;;;;2.27;2.07;;;21.10;55.80;;;;;;5054732;28;20501;-51
2022/05/14 07:56:46;;;;;;;1.23;1.13;;;21.20;55.90;;;;;;5054688;28;20440;-54
2022/05/14 07:59:15;;;;;;;1.63;1.43;;;21.20;55.80;;;;;;5054418;28;20563;-51
2022/05/14 08:01:42;;;;;;;2.30;1.33;;;21.20;55.90;;;;;;5054561;28;20808;-51
2022/05/14 08:04:10;;;;;;;2.00;1.50;;;21.10;55.80;;;;;;5054572;28;20534;-52
2022/05/14 08:06:37;;;;;;;1.40;1.30;;;21.20;56.10;;;;;;5054353;28;20448;-52
2022/05/14 08:09:04;;;;;;;1.53;1.13;;;21.20;56.00;;;;;;5054513;28;20444;-51
2022/05/14 08:11:31;;;;;;;1.80;1.57;;;21.20;56.10;;;;;;5054358;28;20450;-51
2022/05/14 08:13:59;;;;;;;2.13;1.83;;;21.10;56.20;;;;;;5054289;28;20451;-52
2022/05/14 08:16:27;;;;;;;2.00;1.80;;;21.10;56.30;;;;;;5054237;28;20452;-52
2022/05/14 08:18:54;;;;;;;1.43;1.33;;;21.10;56.40;;;;;;5054128;28;20444;-51
2022/05/14 08:26:51;;;;;;;5.13;1.63;;;21.20;56.50;;;;;;5054249;28;21032;-51
2022/05/14 08:29:18;;;;;;;2.13;1.80;;;21.20;56.50;;;;;;5054384;28;20444;-52
2022/05/14 08:31:46;;;;;;;1.73;1.40;;;21.20;56.50;;;;;;5053962;28;20447;-51
2022/05/14 08:34:13;;;;;;;1.83;1.17;;;21.20;56.50;;;;;;5054050;28;20820;-51
2022/05/14 08:36:41;;;;;;;1.73;1.63;;;21.20;56.60;;;;;;5053731;28;20925;-52
2022/05/14 08:39:08;;;;;;;2.63;1.73;;;21.20;56.70;;;;;;5053380;28;20543;-51
2022/05/14 08:41:37;;;;;;;1.50;1.40;;;21.20;56.60;;;;;;5053736;28;20451;-51
2022/05/14 08:44:08;;;;;;;1.83;1.50;;;21.20;56.60;;;;;;5053770;28;20452;-51
2022/05/14 08:46:37;;;;;;;1.30;1.20;;;21.30;56.60;;;;;;5053593;28;20454;-52
2022/05/14 08:49:10;;;;;;;1.53;1.37;;;21.20;56.70;;;;;;5053744;28;20670;-52
2022/05/14 08:51:40;;;;;;;2.80;1.50;;;21.30;56.80;;;;;;5053639;28;20456;-52
2022/05/14 08:54:07;;;;;;;5.63;1.87;;;21.30;56.90;;;;;;5053589;28;20905;-52
2022/05/14 08:56:42;;;;;;;1.60;1.50;;;21.30;56.90;;;;;;5053346;28;20447;-52
2022/05/14 08:59:40;;;;;;;3.30;1.97;;;21.20;56.90;;;;;;5053404;28;20444;-52
2022/05/14 09:02:15;;;;;;;1.90;1.80;;;21.30;57.00;;;;;;5053267;28;20472;-53
2022/05/14 09:04:43;;;;;;;3.20;2.03;;;21.20;57.10;;;;;;5053574;28;20444;-52
2022/05/14 09:07:10;;;;;;;2.53;1.70;;;21.30;57.20;;;;;;5053237;28;20743;-52
2022/05/14 09:09:51;;;;;;;1.83;1.60;;;21.30;57.20;;;;;;5053649;28;20444;-52
2022/05/14 09:12:20;;;;;;;2.97;1.50;;;21.30;57.20;;;;;;5053104;28;20512;-51
2022/05/14 09:14:53;;;;;;;1.93;1.70;;;21.30;57.40;;;;;;5053150;28;20475;-54
2022/05/14 09:17:23;;;;;;;4.23;2.20;;;21.30;57.30;;;;;;5053026;28;20455;-52
2022/05/14 09:19:54;;;;;;;1.80;1.70;;;21.30;57.30;;;;;;5053125;28;20484;-52
2022/05/14 09:22:29;;;;;;;1.83;1.60;;;21.30;57.40;;;;;;5053050;28;20472;-52
2022/05/14 09:25:03;;;;;;;2.97;1.90;;;21.30;57.30;;;;;;5053099;28;20801;-52
2022/05/14 09:27:37;;;;;;;4.13;2.00;;;21.30;57.30;;;;;;5052720;28;20463;-53
2022/05/14 09:30:08;;;;;;;1.50;1.30;;;21.30;57.30;;;;;;5053027;28;20448;-51
2022/05/14 09:32:41;;;;;;;1.87;1.60;;;21.30;57.40;;;;;;5052893;28;20460;-51
2022/05/14 09:35:13;;;;;;;2.33;1.50;;;21.40;57.50;;;;;;5052910;28;20440;-52
2022/05/14 09:37:42;;;;;;;2.93;1.50;;;21.40;57.50;;;;;;5052771;28;20459;-52
2022/05/14 09:40:14;;;;;;;1.73;1.63;;;21.40;57.50;;;;;;5052746;28;20514;-53
2022/05/14 09:42:44;;;;;;;4.17;2.07;;;21.40;57.60;;;;;;5052600;28;20522;-52
2022/05/14 09:45:33;;;;;;;3.63;2.70;;;21.40;57.70;;;;;;5052645;28;20455;-54
2022/05/14 09:48:11;;;;;;;2.50;1.53;;;21.40;57.70;;;;;;5049501;28;20449;-54
2022/05/14 09:50:41;;;;;;;1.67;1.57;;;21.40;57.70;;;;;;5051759;28;20439;-55
2022/05/14 09:53:08;;;;;;;4.33;1.63;;;21.40;57.80;;;;;;5052370;28;20539;-52
2022/05/14 09:56:16;;;;;;;4.20;1.57;;;21.40;57.90;;;;;;5052519;28;20445;-53
2022/05/14 09:58:55;;;;;;;3.40;1.80;;;21.40;58.00;;;;;;5050516;28;20460;-53
2022/05/14 10:01:29;;;;;;;3.30;3.10;;;21.40;58.10;;;;;;5052348;28;20484;-54
2022/05/14 10:04:05;;;;;;;4.60;1.80;;;21.40;58.40;;;;;;5052384;28;20468;-52
2022/05/14 10:06:43;;;;;;;1.53;1.43;;;21.40;58.50;;;;;;5052199;28;21020;-52
2022/05/14 10:09:28;;;;;;;1.37;1.37;;;21.40;58.60;;;;;;5052280;28;20534;-53
2022/05/14 10:12:04;;;;;;;2.40;1.77;;;21.50;58.60;;;;;;5052110;28;20475;-52
2022/05/14 10:14:40;;;;;;;3.30;1.90;;;21.50;58.60;;;;;;5052104;28;20456;-52
2022/05/14 10:17:30;;;;;;;3.80;1.90;;;21.50;58.70;;;;;;5051997;28;20792;-52
2022/05/14 10:20:24;;;;;;;1.83;1.70;;;21.50;58.60;;;;;;5052036;28;20484;-55
2022/05/14 10:28:58;;;;;;;1.97;1.87;;;21.50;58.70;;;;;;5051903;28;20420;-51
2022/05/14 10:31:39;;;;;;;1.60;1.43;;;21.50;59.10;;;;;;5052033;28;20444;-51
2022/05/14 10:34:19;;;;;;;3.80;3.50;;;21.50;59.20;;;;;;5051957;28;20452;-54
2022/05/14 10:36:51;;;;;;;2.93;1.80;;;21.50;59.10;;;;;;5051558;28;20815;-53
2022/05/14 10:39:25;;;;;;;6.20;1.63;;;21.60;59.10;;;;;;5051884;28;20901;-52
2022/05/14 10:41:59;;;;;;;5.50;1.83;;;21.60;59.00;;;;;;5051763;28;20456;-52
2022/05/14 10:44:39;;;;;;;3.37;2.10;;;21.60;58.90;;;;;;5051931;28;20440;-55
2022/05/14 10:47:10;;;;;;;3.80;2.07;;;21.60;58.90;;;;;;5051432;28;20804;-53
2022/05/14 10:49:43;;;;;;;2.23;1.60;;;21.60;58.90;;;;;;5051594;28;20470;-54
2022/05/14 10:52:15;;;;;;;1.90;1.77;;;21.60;58.90;;;;;;5051978;28;20460;-53
2022/05/14 10:54:44;;;;;;;2.13;2.00;;;21.60;59.00;;;;;;5051584;28;20451;-51
2022/05/14 10:57:35;;;;;;;5.50;1.77;;;21.60;59.00;;;;;;5051412;28;20615;-51
2022/05/14 11:00:16;;;;;;;3.30;1.90;;;21.60;59.10;;;;;;5051618;28;20490;-55
2022/05/14 11:02:54;;;;;;;2.40;1.90;;;21.70;59.10;;;;;;5054826;28;20464;-53
2022/05/14 11:05:33;;;;;;;2.93;2.40;;;21.70;59.20;;;;;;5058233;28;20447;-52
2022/05/14 11:08:13;;;;;;;2.63;2.53;;;21.70;59.20;;;;;;5058219;28;20444;-52
2022/05/14 11:10:42;;;;;;;3.93;2.83;;;21.70;59.10;;;;;;5057954;28;20444;-53
2022/05/14 11:13:15;;;;;;;2.03;1.93;;;21.70;59.10;;;;;;5057935;28;20480;-52
2022/05/14 11:15:44;;;;;;;3.03;1.97;;;21.80;59.10;;;;;;5057963;28;20444;-54
2022/05/14 11:18:13;;;;;;;1.67;1.57;;;21.80;59.20;;;;;;5057942;28;20440;-52
2022/05/14 11:20:52;;;;;;;2.90;2.00;;;21.80;59.30;;;;;;5057939;28;20495;-52
2022/05/14 11:23:19;;;;;;;2.60;2.30;;;21.80;59.30;;;;;;5057988;28;20464;-52
2022/05/14 11:25:47;;;;;;;4.57;2.20;;;21.80;59.20;;;;;;5057536;28;20841;-52
2022/05/14 11:28:28;;;;;;;2.83;2.30;;;21.90;59.20;;;;;;5057876;28;20444;-55
2022/05/14 11:30:57;;;;;;;4.10;2.43;;;21.90;59.10;;;;;;5057951;28;20448;-52
2022/05/14 11:33:31;;;;;;;2.43;2.23;;;21.80;58.80;;;;;;5057785;28;20471;-53
2022/05/14 11:35:59;;;;;;;4.97;4.47;;;21.90;58.70;;;;;;5057821;28;20439;-52
2022/05/14 11:38:35;;;;;;;2.63;2.20;;;21.90;58.60;;;;;;5057790;28;20807;-54
2022/05/14 11:41:05;;;;;;;2.20;1.90;;;21.90;58.40;;;;;;5057703;28;20490;-53
2022/05/14 11:43:34;;;;;;;3.67;2.50;;;21.90;58.30;;;;;;5057806;28;20472;-55
2022/05/14 11:46:12;;;;;;;6.10;2.57;;;21.90;58.20;;;;;;5057826;28;20814;-53
2022/05/14 11:48:45;;;;;;;2.13;1.73;;;21.90;58.20;;;;;;5057608;28;20448;-55
2022/05/14 11:51:17;;;;;;;3.83;2.43;;;22.00;58.20;;;;;;5057885;28;20497;-52
2022/05/14 11:53:49;;;;;;;2.33;2.13;;;22.00;58.10;;;;;;5057620;28;21330;-53
2022/05/14 11:56:26;;;;;;;2.80;2.20;;;22.00;58.10;;;;;;5057792;28;20451;-52
2022/05/14 11:59:03;;;;;;;3.47;2.43;;;22.00;58.10;;;;;;5057698;28;20443;-52
2022/05/14 12:01:37;;;;;;;3.10;1.77;;;22.00;57.90;;;;;;5057699;28;20836;-55
2022/05/14 12:04:13;;;;;;;3.33;2.40;;;22.00;58.30;;;;;;5057570;28;20443;-53
2022/05/14 12:06:55;;;;;;;3.13;2.30;;;22.10;57.60;;;;;;5057820;28;20440;-54
2022/05/14 12:09:45;;;;;;;2.27;2.07;;;22.00;58.00;;;;;;5057572;28;20455;-53
2022/05/14 12:12:17;;;;;;;2.10;1.90;;;22.00;57.60;;;;;;5057545;28;20472;-53
2022/05/14 12:14:46;;;;;;;2.10;1.90;;;22.10;57.30;;;;;;5055075;28;20448;-52
2022/05/14 12:17:16;;;;;;;1.80;1.70;;;22.10;57.50;;;;;;5054326;28;20455;-53
2022/05/14 12:19:44;;;;;;;4.07;2.50;;;22.10;57.50;;;;;;5054413;28;20686;-52
2022/05/14 12:22:20;;;;;;;2.73;2.00;;;22.20;57.60;;;;;;5054110;28;20491;-54
2022/05/14 12:24:55;;;;;;;3.80;2.27;;;22.20;57.60;;;;;;5054186;28;20903;-52
2022/05/14 12:27:24;;;;;;;2.17;1.97;;;22.20;57.40;;;;;;5053999;28;20448;-55
2022/05/14 12:29:57;;;;;;;2.83;1.77;;;22.20;57.40;;;;;;5054310;28;20440;-52
2022/05/14 12:35:15;;;;;;;2.63;2.00;;;22.30;57.40;;;;;;5031179;28;20436;-52
2022/05/14 12:37:43;;;;;;;4.67;2.03;;;22.30;57.50;;;;;;5053783;28;20440;-52
2022/05/14 12:40:20;;;;;;;1.80;1.70;;;22.30;57.40;;;;;;5053854;28;20448;-52
2022/05/14 12:42:48;;;;;;;2.20;2.10;;;22.30;57.30;;;;;;5053753;28;20459;-52
2022/05/14 12:45:15;;;;;;;3.10;1.87;;;22.30;57.80;;;;;;5053844;28;20805;-52
2022/05/14 12:47:41;;;;;;;2.87;2.03;;;22.40;57.50;;;;;;5053770;28;20795;-52
2022/05/14 12:50:17;;;;;;;2.60;2.30;;;22.40;57.40;;;;;;5053699;28;20841;-55
2022/05/14 12:52:54;;;;;;;1.77;1.63;;;22.40;57.30;;;;;;5053565;28;20459;-55
2022/05/14 12:55:22;;;;;;;2.20;1.60;;;22.40;57.30;;;;;;5053696;28;20814;-54
2022/05/14 12:57:52;;;;;;;2.43;1.87;;;22.40;57.50;;;;;;5053326;28;20455;-52
2022/05/14 13:00:21;;;;;;;1.97;1.87;;;22.40;57.40;;;;;;5053516;28;20455;-53
2022/05/14 13:02:52;;;;;;;2.97;2.20;;;22.50;57.40;;;;;;5053521;28;20526;-52
2022/05/14 13:05:22;;;;;;;6.17;1.97;;;22.50;57.40;;;;;;5053434;28;20452;-53
2022/05/14 13:07:51;;;;;;;2.53;2.33;;;22.50;57.60;;;;;;5053002;28;20942;-53
2022/05/14 13:10:21;;;;;;;1.77;1.67;;;22.50;57.50;;;;;;5053394;28;20953;-52
2022/05/14 13:12:54;;;;;;;2.90;2.07;;;22.50;57.40;;;;;;5053333;28;20836;-53
2022/05/14 13:15:31;;;;;;;2.17;1.97;;;22.50;57.40;;;;;;5053643;28;20444;-53
2022/05/14 13:17:58;;;;;;;2.27;2.17;;;22.50;57.50;;;;;;5053069;28;20451;-53
2022/05/14 13:20:26;;;;;;;2.70;2.40;;;22.60;57.40;;;;;;5053093;28;20449;-55
2022/05/14 13:23:05;;;;;;;2.77;2.53;;;22.60;57.20;;;;;;5053018;28;21051;-53
2022/05/14 13:25:35;;;;;;;2.47;2.37;;;22.70;57.10;;;;;;5052034;28;20926;-52
2022/05/14 13:28:16;;;;;;;3.80;2.07;;;22.70;57.00;;;;;;5052752;28;20476;-52